Time;durP1;ratioP1;P1;durP2;ratioP2;P2;SDS_P1;SDS_P2;PMS_P1;PMS_P2;Temp;Humidity;BMP_temperature;BMP_pressure;BME280_temperature;BME280_humidity;BME280_pressure;Samples;Min_cycle;Max_cycle;Signal;HPM_P1;HPM_P2
2021/07/15 00:00:46;;;;;;;7.73;6.93;;;;;;;19.16;85.76;100435.66;5081395;28;20182;-78
2021/07/15 00:03:17;;;;;;;9.83;7.63;;;;;;;19.14;86.31;100418.72;5079780;28;20194;-76
2021/07/15 00:05:42;;;;;;;9.07;7.53;;;;;;;19.08;86.76;100422.00;5080845;28;20190;-77
2021/07/15 00:08:09;;;;;;;7.80;6.80;;;;;;;18.99;86.47;100427.28;5080646;28;20192;-77
2021/07/15 00:10:41;;;;;;;9.30;7.43;;;;;;;18.91;87.27;100429.84;5097047;28;20174;-77
2021/07/15 00:13:07;;;;;;;11.57;7.70;;;;;;;18.86;87.48;100421.31;5096044;28;20186;-77
2021/07/15 00:15:38;;;;;;;11.00;7.20;;;;;;;18.87;86.87;100425.72;5097587;28;20169;-77
2021/07/15 00:18:06;;;;;;;7.53;6.80;;;;;;;18.85;87.26;100410.66;5079802;28;20162;-76
2021/07/15 00:20:35;;;;;;;9.07;7.40;;;;;;;18.95;86.36;100408.78;5097015;28;20182;-76
2021/07/15 00:23:00;;;;;;;8.37;7.50;;;;;;;19.04;86.06;100392.56;5081122;28;20248;-76
2021/07/15 00:25:25;;;;;;;10.37;7.67;;;;;;;19.10;85.91;100396.53;5094804;28;20194;-76
2021/07/15 00:27:51;;;;;;;8.40;7.53;;;;;;;19.01;86.27;100397.41;5077108;28;20174;-76
2021/07/15 00:30:16;;;;;;;11.87;7.83;;;;;;;18.92;87.17;100392.84;5101843;28;20175;-77
2021/07/15 00:32:42;;;;;;;12.07;7.93;;;;;;;18.86;87.86;100394.28;5080425;28;20244;-76
2021/07/15 00:35:08;;;;;;;10.63;7.40;;;;;;;18.82;88.34;100392.00;5098185;28;20692;-76
2021/07/15 00:37:34;;;;;;;10.03;6.73;;;;;;;18.73;89.29;100396.44;5098505;28;20238;-77
2021/07/15 00:39:59;;;;;;;8.73;7.60;;;;;;;18.69;89.71;100403.13;5081031;28;20216;-77
2021/07/15 00:42:25;;;;;;;9.50;8.50;;;;;;;18.62;90.80;100404.72;5080490;28;20214;-76
2021/07/15 00:44:50;;;;;;;10.20;7.63;;;;;;;18.58;90.85;100403.22;5096853;28;20749;-76
2021/07/15 00:47:15;;;;;;;12.63;8.30;;;;;;;18.58;90.89;100395.13;5078665;28;20174;-77
2021/07/15 00:49:41;;;;;;;11.17;7.80;;;;;;;18.61;90.60;100389.47;5107534;28;20178;-77
2021/07/15 00:52:11;;;;;;;8.60;7.70;;;;;;;18.56;90.99;100399.81;5098428;28;20209;-77
2021/07/15 00:54:38;;;;;;;11.60;7.63;;;;;;;18.44;92.32;100405.38;5115321;28;20146;-77
2021/07/15 00:57:04;;;;;;;9.50;8.00;;;;;;;18.39;92.96;100431.97;5096777;28;20178;-77
2021/07/15 00:59:29;;;;;;;11.90;7.73;;;;;;;18.34;93.88;100420.72;5104743;28;20535;-77
2021/07/15 01:01:54;;;;;;;14.07;8.23;;;;;;;18.30;94.25;100427.41;5078409;28;20182;-77
2021/07/15 01:04:20;;;;;;;9.27;8.30;;;;;;;18.20;94.58;100418.41;5096432;28;20177;-77
2021/07/15 01:06:45;;;;;;;11.07;7.73;;;;;;;18.12;95.49;100427.22;5096115;28;20216;-77
2021/07/15 01:09:10;;;;;;;13.23;9.30;;;;;;;18.05;96.59;100441.44;5078042;28;20170;-77
2021/07/15 01:11:42;;;;;;;12.23;9.17;;;;;;;17.99;97.80;100447.38;5097440;28;20171;-76
2021/07/15 01:14:10;;;;;;;10.70;9.53;;;;;;;17.91;98.45;100439.97;5079025;28;20169;-77
2021/07/15 01:16:47;;;;;;;15.17;10.80;;;;;;;17.97;97.58;100446.66;5094737;28;20163;-76
2021/07/15 01:19:31;;;;;;;13.00;11.20;;;;;;;18.08;97.46;100451.94;5079735;28;20150;-77
2021/07/15 01:22:09;;;;;;;12.00;10.70;;;;;;;18.29;96.17;100455.41;5095783;28;20511;-76
2021/07/15 01:24:56;;;;;;;15.13;9.77;;;;;;;18.34;95.72;100455.84;5078989;28;20185;-76
2021/07/15 01:27:42;;;;;;;14.00;9.97;;;;;;;18.46;95.03;100469.22;5097923;28;20595;-76
2021/07/15 01:30:11;;;;;;;12.53;9.70;;;;;;;18.36;95.49;100483.59;5096084;28;20222;-77
2021/07/15 01:33:03;;;;;;;11.47;9.43;;;;;;;18.38;95.12;100478.88;5098532;28;20235;-76
2021/07/15 01:35:32;;;;;;;10.73;9.27;;;;;;;18.35;94.99;100481.88;5092780;28;20162;-76
2021/07/15 01:38:00;;;;;;;11.77;9.10;;;;;;;18.33;95.30;100489.28;5092867;28;20189;-76
2021/07/15 01:40:28;;;;;;;13.73;9.70;;;;;;;18.30;95.66;100483.28;5093602;28;20215;-76
2021/07/15 01:43:00;;;;;;;10.40;9.30;;;;;;;18.29;95.88;100486.97;5081160;28;20543;-76
2021/07/15 01:45:26;;;;;;;12.20;9.93;;;;;;;18.40;95.41;100506.63;5078552;28;20271;-76
2021/07/15 01:47:52;;;;;;;10.50;9.50;;;;;;;18.43;95.17;100492.84;5094003;28;20174;-76
2021/07/15 01:50:17;;;;;;;10.57;9.57;;;;;;;18.44;96.39;100497.25;5095714;28;20530;-76
2021/07/15 01:52:43;;;;;;;14.90;9.53;;;;;;;18.30;97.91;100491.41;5094193;28;20216;-76
2021/07/15 01:55:09;;;;;;;16.57;9.87;;;;;;;18.28;98.56;100494.22;5076955;28;20575;-76
2021/07/15 01:57:37;;;;;;;16.10;10.73;;;;;;;18.29;98.45;100490.53;5076999;28;20189;-76
2021/07/15 02:00:06;;;;;;;10.57;9.47;;;;;;;18.42;97.51;100488.41;5077105;28;20178;-76
2021/07/15 02:02:31;;;;;;;11.53;9.80;;;;;;;18.52;96.54;100474.06;5076258;28;20307;-76
2021/07/15 02:04:57;;;;;;;9.97;8.97;;;;;;;18.51;97.30;100475.91;5094359;28;20611;-76
2021/07/15 02:07:24;;;;;;;16.03;10.90;;;;;;;18.49;97.74;100467.09;5098106;28;20253;-76
2021/07/15 02:09:51;;;;;;;12.73;9.33;;;;;;;18.35;98.27;100476.47;5077751;28;20186;-76
2021/07/15 02:12:19;;;;;;;13.03;9.00;;;;;;;18.24;98.72;100473.91;5076853;28;20194;-76
2021/07/15 02:14:47;;;;;;;10.37;8.53;;;;;;;18.32;98.33;100482.16;5093946;28;20174;-77
2021/07/15 02:17:12;;;;;;;11.70;8.83;;;;;;;18.42;98.59;100471.34;5093873;28;20165;-76
2021/07/15 02:19:38;;;;;;;9.07;8.17;;;;;;;18.39;98.39;100480.59;5093913;28;20599;-76
2021/07/15 02:22:04;;;;;;;10.47;9.00;;;;;;;18.27;98.89;100484.44;5093470;28;20186;-76
2021/07/15 02:24:31;;;;;;;9.40;8.20;;;;;;;18.23;99.24;100493.81;5093765;28;20182;-76
2021/07/15 02:26:57;;;;;;;11.73;9.10;;;;;;;18.16;99.95;100481.81;5077539;28;20673;-76
2021/07/15 02:29:22;;;;;;;16.33;9.57;;;;;;;18.14;100.00;100497.31;5076445;28;20231;-76
2021/07/15 02:31:50;;;;;;;11.20;8.73;;;;;;;18.16;100.00;100503.41;5093792;28;20175;-76
2021/07/15 02:34:20;;;;;;;11.57;8.97;;;;;;;18.25;99.78;100510.72;5093752;28;20181;-76
2021/07/15 02:36:46;;;;;;;12.53;9.00;;;;;;;18.26;99.22;100512.44;5093272;28;20182;-76
2021/07/15 02:39:12;;;;;;;12.97;8.37;;;;;;;18.18;99.10;100514.94;5093070;28;20658;-76
2021/07/15 02:41:37;;;;;;;9.60;8.60;;;;;;;18.20;99.63;100521.06;5076128;28;20174;-76
2021/07/15 02:44:03;;;;;;;8.83;8.03;;;;;;;18.08;99.45;100527.56;5075832;28;20196;-76
2021/07/15 02:46:29;;;;;;;11.93;8.87;;;;;;;18.01;99.32;100527.25;5092863;28;20194;-76
2021/07/15 02:48:54;;;;;;;11.93;7.63;;;;;;;18.10;97.58;100517.47;5092912;28;20174;-76
2021/07/15 02:51:19;;;;;;;8.57;7.63;;;;;;;18.06;97.16;100494.44;5092807;28;20182;-76
2021/07/15 02:53:45;;;;;;;8.60;7.27;;;;;;;18.06;95.94;100491.75;5092769;28;20206;-76
2021/07/15 02:56:15;;;;;;;15.53;8.03;;;;;;;18.13;95.35;100491.06;5094263;28;20228;-76
2021/07/15 02:58:45;;;;;;;8.90;7.20;;;;;;;18.16;94.41;100486.38;5093812;28;20282;-76
2021/07/15 03:01:14;;;;;;;9.60;7.27;;;;;;;18.03;94.78;100484.78;5075678;28;20637;-76
2021/07/15 03:03:59;;;;;;;9.47;7.13;;;;;;;18.03;95.33;100481.22;5092645;28;20284;-76
2021/07/15 03:06:36;;;;;;;14.93;6.40;;;;;;;18.04;94.51;100491.03;5092635;28;20182;-76
2021/07/15 03:09:20;;;;;;;8.37;7.57;;;;;;;17.97;95.45;100496.13;5075603;28;20184;-76
2021/07/15 03:11:49;;;;;;;8.60;6.90;;;;;;;17.94;95.48;100500.94;5092711;28;20162;-76
2021/07/15 03:14:15;;;;;;;10.03;7.17;;;;;;;17.87;96.13;100505.19;5091911;28;20179;-76
2021/07/15 03:16:43;;;;;;;7.40;6.70;;;;;;;17.84;96.13;100503.63;5092506;28;20173;-76
2021/07/15 03:19:09;;;;;;;9.53;6.90;;;;;;;17.84;96.64;100518.94;5092338;28;20541;-76
2021/07/15 03:21:35;;;;;;;8.43;7.37;;;;;;;17.79;97.13;100527.44;5092247;28;20273;-76
2021/07/15 03:24:01;;;;;;;9.03;7.77;;;;;;;17.86;96.69;100535.88;5092205;28;20297;-76
2021/07/15 03:26:26;;;;;;;12.07;7.70;;;;;;;17.89;96.45;100527.50;5075449;28;20204;-77
2021/07/15 03:28:53;;;;;;;11.10;8.40;;;;;;;17.85;96.85;100529.63;5092394;28;20545;-75
2021/07/15 03:31:19;;;;;;;9.40;8.37;;;;;;;17.77;97.49;100535.66;5092280;28;20269;-76
2021/07/15 03:33:45;;;;;;;10.63;7.93;;;;;;;17.78;96.73;100548.16;5092205;28;20201;-76
2021/07/15 03:36:11;;;;;;;9.73;7.53;;;;;;;17.83;96.55;100539.66;5075191;28;20175;-75
2021/07/15 03:38:39;;;;;;;11.40;7.33;;;;;;;17.77;96.64;100541.06;5092024;28;20181;-75
2021/07/15 03:41:05;;;;;;;8.17;7.33;;;;;;;17.80;96.90;100543.50;5092004;28;20638;-76
2021/07/15 03:43:31;;;;;;;11.90;9.63;;;;;;;17.86;96.57;100550.22;5091878;28;20202;-76
2021/07/15 03:45:56;;;;;;;10.30;7.23;;;;;;;17.82;96.78;100548.75;5074953;28;20558;-76
2021/07/15 03:48:27;;;;;;;9.20;8.20;;;;;;;17.84;96.80;100552.22;5091747;28;20223;-75
2021/07/15 03:50:55;;;;;;;10.77;8.77;;;;;;;17.78;96.90;100550.88;5092006;28;20519;-76
2021/07/15 03:53:21;;;;;;;9.43;6.97;;;;;;;17.85;96.94;100562.00;5104428;22;20574;-70
2021/07/15 03:55:47;;;;;;;10.00;7.67;;;;;;;17.90;96.63;100559.75;5071861;28;20316;-70
2021/07/15 03:58:13;;;;;;;10.07;7.73;;;;;;;17.92;96.46;100565.03;5054865;28;20183;-70
2021/07/15 04:00:41;;;;;;;9.10;7.37;;;;;;;17.91;96.78;100568.72;5054991;28;20179;-71
2021/07/15 04:03:08;;;;;;;7.67;6.40;;;;;;;17.87;97.22;100567.28;5071843;28;20195;-70
2021/07/15 04:05:36;;;;;;;8.60;7.67;;;;;;;17.87;97.15;100560.03;5071797;28;20230;-70
2021/07/15 04:08:03;;;;;;;9.23;7.73;;;;;;;17.88;97.29;100564.44;5071980;28;20167;-69
2021/07/15 04:10:29;;;;;;;10.63;6.43;;;;;;;17.86;97.24;100554.78;5073056;28;20320;-69
2021/07/15 04:12:56;;;;;;;7.23;6.53;;;;;;;17.98;96.44;100556.38;5071585;28;20335;-69
2021/07/15 04:15:29;;;;;;;7.57;6.50;;;;;;;18.00;96.28;100562.50;5072063;28;20170;-71
2021/07/15 04:17:59;;;;;;;6.30;5.70;;;;;;;17.95;96.86;100567.47;5071479;28;20580;-69
2021/07/15 04:20:26;;;;;;;9.90;6.90;;;;;;;17.91;96.87;100560.63;5071450;28;20203;-69
2021/07/15 04:22:54;;;;;;;9.03;6.60;;;;;;;17.98;96.35;100576.13;5071518;28;20559;-70
2021/07/15 04:25:21;;;;;;;7.53;6.83;;;;;;;18.06;96.08;100561.97;5091414;28;20202;-70
2021/07/15 04:27:48;;;;;;;7.47;6.40;;;;;;;18.14;94.56;100567.53;5075667;28;20175;-69
2021/07/15 04:30:14;;;;;;;8.73;7.20;;;;;;;18.20;94.10;100572.38;5058888;28;20174;-69
2021/07/15 04:32:53;;;;;;;25.83;19.27;;;;;;;18.21;94.19;100554.31;5076897;28;20191;-70
2021/07/15 04:35:20;;;;;;;11.10;8.27;;;;;;;18.25;94.24;100566.59;5075815;28;20242;-69
2021/07/15 04:37:45;;;;;;;8.40;7.50;;;;;;;18.26;94.01;100574.56;5075718;28;20201;-72
2021/07/15 04:40:13;;;;;;;9.13;7.43;;;;;;;18.28;94.11;100571.72;5075557;28;20257;-72
2021/07/15 04:42:39;;;;;;;7.40;6.60;;;;;;;18.34;93.77;100571.16;5075190;28;20201;-72
2021/07/15 04:45:07;;;;;;;10.73;7.73;;;;;;;18.37;93.74;100571.75;5075764;28;20598;-74
2021/07/15 04:47:33;;;;;;;9.53;8.30;;;;;;;18.45;92.47;100571.06;5076684;28;20179;-74
2021/07/15 04:49:59;;;;;;;7.37;6.60;;;;;;;18.40;92.67;100571.47;5079332;28;20254;-75
2021/07/15 04:52:24;;;;;;;9.53;7.57;;;;;;;18.43;92.61;100565.78;5093296;28;20265;-75
2021/07/15 04:54:50;;;;;;;8.63;6.60;;;;;;;18.37;92.98;100569.03;5078510;28;20170;-70
2021/07/15 04:57:15;;;;;;;8.60;6.60;;;;;;;18.34;93.33;100568.47;5076823;28;20167;-72
2021/07/15 04:59:41;;;;;;;9.40;6.70;;;;;;;18.29;93.10;100562.63;5095243;28;20653;-72
2021/07/15 05:02:07;;;;;;;10.70;6.83;;;;;;;18.35;94.00;100564.78;5078081;28;20213;-68
2021/07/15 05:04:33;;;;;;;9.47;6.80;;;;;;;18.39;93.38;100567.06;5078058;28;20167;-67
2021/07/15 05:06:59;;;;;;;9.90;7.27;;;;;;;18.39;92.91;100561.66;5076537;28;20194;-67
2021/07/15 05:09:24;;;;;;;9.67;6.53;;;;;;;18.34;93.66;100563.91;5078522;28;20169;-66
2021/07/15 05:11:50;;;;;;;12.07;7.17;;;;;;;18.34;93.91;100561.22;5077188;28;20171;-68
2021/07/15 05:14:15;;;;;;;8.80;7.40;;;;;;;18.49;92.97;100566.22;5078617;28;20268;-67
2021/07/15 05:16:40;;;;;;;8.50;7.43;;;;;;;18.57;92.57;100567.22;5078717;28;20193;-67
2021/07/15 05:19:06;;;;;;;11.17;6.77;;;;;;;18.62;92.42;100558.78;5078392;28;20178;-67
2021/07/15 05:21:32;;;;;;;12.03;9.73;;;;;;;18.66;92.25;100565.59;5076692;28;20252;-66
2021/07/15 05:23:57;;;;;;;6.97;6.07;;;;;;;18.63;92.27;100555.06;5078027;28;20199;-67
2021/07/15 05:26:22;;;;;;;8.63;6.90;;;;;;;18.78;91.05;100559.06;5077891;28;20199;-66
2021/07/15 05:28:49;;;;;;;10.53;7.20;;;;;;;18.84;90.98;100553.09;5078735;28;20657;-67
2021/07/15 05:31:15;;;;;;;8.53;6.03;;;;;;;18.85;90.96;100557.50;5077609;28;20175;-67
2021/07/15 05:33:40;;;;;;;6.30;5.67;;;;;;;18.87;90.29;100557.34;5077844;28;20681;-67
2021/07/15 05:36:05;;;;;;;7.80;6.53;;;;;;;18.83;92.10;100562.19;5091649;28;20171;-66
2021/07/15 05:38:31;;;;;;;6.83;5.50;;;;;;;18.74;93.58;100580.13;5092898;28;20229;-67
2021/07/15 05:40:56;;;;;;;9.63;6.17;;;;;;;18.90;91.42;100578.72;5077032;28;20167;-67
2021/07/15 05:43:21;;;;;;;8.50;5.93;;;;;;;18.96;90.78;100565.50;5075704;28;20548;-66
2021/07/15 05:45:47;;;;;;;9.07;5.40;;;;;;;18.97;92.02;100564.50;5076473;28;20229;-66
2021/07/15 05:48:12;;;;;;;9.13;6.23;;;;;;;19.19;89.86;100574.19;5077491;28;20175;-68
2021/07/15 05:50:37;;;;;;;10.23;5.70;;;;;;;19.18;90.72;100572.47;5074258;28;20275;-68
2021/07/15 05:53:03;;;;;;;9.47;5.53;;;;;;;19.32;90.02;100573.88;5075669;28;20207;-69
2021/07/15 05:55:28;;;;;;;6.93;4.80;;;;;;;19.26;90.25;100569.91;5076833;28;20222;-67
2021/07/15 05:57:54;;;;;;;8.47;4.47;;;;;;;19.45;89.44;100570.91;5075224;28;20584;-68
2021/07/15 06:00:19;;;;;;;5.67;5.00;;;;;;;19.56;87.99;100571.63;5081321;28;20171;-69
2021/07/15 06:02:44;;;;;;;7.37;3.80;;;;;;;19.64;86.72;100569.03;5106015;28;20199;-69
2021/07/15 06:05:10;;;;;;;9.23;3.43;;;;;;;19.56;85.93;100571.63;5093438;28;20202;-68
2021/07/15 06:07:36;;;;;;;3.73;3.03;;;;;;;19.77;85.46;100570.59;5076498;28;20242;-68
2021/07/15 06:10:03;;;;;;;5.27;3.50;;;;;;;19.81;85.25;100572.00;5074209;28;20182;-68
2021/07/15 06:12:29;;;;;;;4.83;3.53;;;;;;;19.96;84.36;100575.94;5075266;28;20559;-68
2021/07/15 06:14:54;;;;;;;6.23;3.63;;;;;;;20.05;83.91;100577.75;5075474;28;20175;-72
2021/07/15 06:17:19;;;;;;;8.10;3.47;;;;;;;20.09;83.58;100573.75;5074981;28;20170;-69
2021/07/15 06:19:45;;;;;;;3.50;3.10;;;;;;;20.24;82.47;100571.41;5075275;28;20198;-68
2021/07/15 06:22:10;;;;;;;7.07;3.57;;;;;;;20.27;83.52;100573.81;5074723;28;20163;-68
2021/07/15 06:24:35;;;;;;;7.70;3.40;;;;;;;20.30;83.34;100576.22;5074648;28;20179;-68
2021/07/15 06:27:00;;;;;;;4.20;3.40;;;;;;;20.48;81.77;100581.75;5075056;28;20186;-67
2021/07/15 06:29:26;;;;;;;6.67;2.93;;;;;;;20.56;81.21;100577.28;5074698;28;20186;-68
2021/07/15 06:31:52;;;;;;;3.33;2.90;;;;;;;20.78;80.83;100578.69;5074474;28;20167;-68
2021/07/15 06:34:17;;;;;;;4.70;3.90;;;;;;;20.79;79.97;100579.53;5073050;28;20190;-68
2021/07/15 06:36:44;;;;;;;7.63;3.10;;;;;;;20.95;79.06;100578.88;5090287;28;20166;-68
2021/07/15 06:39:10;;;;;;;8.13;2.93;;;;;;;20.81;81.57;100591.97;5073091;28;20692;-68
2021/07/15 06:41:35;;;;;;;3.77;3.13;;;;;;;21.24;78.28;100586.81;5074328;28;20171;-68
2021/07/15 06:44:01;;;;;;;7.50;3.47;;;;;;;21.25;78.36;100594.81;5074023;28;20244;-68
2021/07/15 06:46:27;;;;;;;3.67;3.10;;;;;;;21.49;76.80;100594.16;5073731;28;20208;-69
2021/07/15 06:48:52;;;;;;;3.67;3.20;;;;;;;21.62;76.27;100596.47;5074112;28;20167;-68
2021/07/15 06:51:19;;;;;;;3.40;2.93;;;;;;;21.59;76.57;100604.94;5090416;28;20662;-68
2021/07/15 06:53:46;;;;;;;3.60;2.57;;;;;;;21.74;76.00;100606.94;5074025;28;20264;-68
2021/07/15 06:56:11;;;;;;;4.43;3.07;;;;;;;21.51;76.71;100612.00;5074223;28;20516;-68
2021/07/15 06:58:36;;;;;;;8.03;2.80;;;;;;;21.49;76.64;100619.44;5074251;28;20178;-68
2021/07/15 07:01:01;;;;;;;4.60;2.40;;;;;;;21.79;76.04;100620.03;5074243;28;20171;-69
2021/07/15 07:03:27;;;;;;;5.20;2.90;;;;;;;21.92;74.69;100620.44;5073939;28;20281;-68
2021/07/15 07:05:53;;;;;;;7.30;2.70;;;;;;;21.98;74.77;100618.97;5073939;28;20528;-69
2021/07/15 07:08:18;;;;;;;6.03;2.80;;;;;;;21.79;76.45;100618.16;5074154;28;20178;-69
2021/07/15 07:10:43;;;;;;;2.83;2.10;;;;;;;21.91;77.30;100623.31;5089594;28;20174;-69
2021/07/15 07:13:09;;;;;;;3.77;2.50;;;;;;;22.10;75.48;100629.44;5074899;28;20195;-69
2021/07/15 07:15:34;;;;;;;2.50;2.17;;;;;;;22.25;74.98;100631.56;5089869;28;20167;-69
2021/07/15 07:17:59;;;;;;;3.17;2.30;;;;;;;22.44;73.57;100631.34;5072249;28;20174;-68
2021/07/15 07:20:25;;;;;;;5.37;2.50;;;;;;;22.59;72.99;100628.84;5074277;28;20206;-69
2021/07/15 07:22:50;;;;;;;3.20;2.67;;;;;;;22.68;72.92;100625.16;5090258;28;20191;-69
2021/07/15 07:25:16;;;;;;;2.50;2.30;;;;;;;22.42;71.64;100611.63;5074837;28;20213;-69
2021/07/15 07:27:42;;;;;;;15.17;11.73;;;;;;;22.86;70.09;100603.31;5074644;28;20173;-69
2021/07/15 07:30:12;;;;;;;5.37;4.10;;;;;;;22.90;69.07;100608.25;5073506;28;20175;-69
2021/07/15 07:32:37;;;;;;;4.80;2.73;;;;;;;23.05;69.16;100609.31;5072044;28;20202;-69
2021/07/15 07:35:05;;;;;;;4.90;3.07;;;;;;;23.02;70.27;100611.50;5073505;28;20214;-69
2021/07/15 07:37:32;;;;;;;5.90;2.10;;;;;;;22.87;70.46;100597.69;5073187;28;20196;-69
2021/07/15 07:39:57;;;;;;;4.97;2.23;;;;;;;22.72;70.06;100602.06;5073045;28;20163;-69
2021/07/15 07:42:22;;;;;;;2.27;2.03;;;;;;;22.87;69.58;100600.41;5088672;28;20705;-69
2021/07/15 07:44:49;;;;;;;4.00;2.17;;;;;;;23.02;69.01;100592.44;5073254;28;20170;-69
2021/07/15 07:47:14;;;;;;;3.50;2.80;;;;;;;22.67;70.42;100591.66;5089312;28;20186;-69
2021/07/15 07:49:39;;;;;;;5.43;3.13;;;;;;;22.71;70.53;100589.47;5089137;28;20174;-69
2021/07/15 07:52:05;;;;;;;3.80;2.40;;;;;;;22.84;69.89;100594.47;5073520;28;20612;-69
2021/07/15 07:54:31;;;;;;;2.17;1.90;;;;;;;23.01;70.14;100596.19;5072030;28;20182;-68
2021/07/15 07:56:57;;;;;;;2.33;1.93;;;;;;;23.10;68.39;100588.91;5073663;28;20265;-70
2021/07/15 07:59:22;;;;;;;2.40;2.17;;;;;;;23.29;67.62;100585.84;5072993;28;20171;-69
2021/07/15 08:01:47;;;;;;;2.70;2.10;;;;;;;23.25;67.55;100579.91;5073928;28;20198;-70
2021/07/15 08:04:13;;;;;;;3.00;2.70;;;;;;;23.52;66.39;100594.22;5072223;28;20226;-69
2021/07/15 08:06:41;;;;;;;2.60;2.30;;;;;;;23.52;66.18;100584.16;5073345;28;20183;-69
2021/07/15 08:09:08;;;;;;;3.60;2.20;;;;;;;23.45;67.11;100580.44;5072331;28;20167;-68
2021/07/15 08:11:33;;;;;;;3.43;2.60;;;;;;;23.56;66.96;100577.38;5074055;28;20182;-68
2021/07/15 08:13:58;;;;;;;2.20;2.00;;;;;;;23.63;65.90;100581.13;5089640;28;20186;-69
2021/07/15 08:16:24;;;;;;;4.17;2.40;;;;;;;23.65;66.08;100572.78;5074736;28;20501;-68
2021/07/15 08:18:49;;;;;;;3.57;1.90;;;;;;;23.71;66.48;100582.97;5071470;28;20253;-68
2021/07/15 08:21:21;;;;;;;3.27;2.00;;;;;;;23.75;66.07;100578.88;5071463;28;20643;-68
2021/07/15 08:23:47;;;;;;;5.53;1.97;;;;;;;23.69;66.32;100565.94;5088351;28;20198;-68
2021/07/15 08:26:13;;;;;;;7.63;2.83;;;;;;;23.58;67.81;100560.88;5071289;28;20309;-68
2021/07/15 08:28:38;;;;;;;3.57;2.30;;;;;;;23.66;67.11;100561.69;5072621;28;20178;-68
2021/07/15 08:31:04;;;;;;;4.47;2.80;;;;;;;23.98;64.91;100563.53;5073139;28;20691;-67
2021/07/15 08:33:29;;;;;;;3.43;2.50;;;;;;;24.27;63.86;100568.41;5072641;28;20278;-70
2021/07/15 08:35:56;;;;;;;3.43;3.03;;;;;;;24.23;63.55;100575.22;5072883;28;20167;-69
2021/07/15 08:38:21;;;;;;;2.83;2.50;;;;;;;24.34;63.77;100574.00;5088301;28;20259;-69
2021/07/15 08:40:47;;;;;;;6.30;3.07;;;;;;;24.31;62.49;100579.81;5072432;28;20179;-69
2021/07/15 08:43:14;;;;;;;3.00;2.70;;;;;;;24.42;62.94;100575.84;5088061;28;20202;-68
2021/07/15 08:45:41;;;;;;;3.97;3.00;;;;;;;24.52;62.08;100580.03;5088204;28;20183;-68
2021/07/15 08:48:07;;;;;;;3.50;3.20;;;;;;;24.65;61.89;100584.09;5072543;28;20265;-68
2021/07/15 08:50:32;;;;;;;5.60;3.67;;;;;;;24.58;61.34;100594.88;5071955;28;20178;-68
2021/07/15 08:52:58;;;;;;;4.43;3.33;;;;;;;24.62;62.27;100590.78;5072915;28;20210;-68
2021/07/15 08:58:08;;;;;;;5.57;3.60;;;;;;;24.37;62.89;100580.97;5072770;28;20208;-68
2021/07/15 09:00:33;;;;;;;5.73;3.43;;;;;;;24.80;61.96;100579.56;5071348;28;20265;-68
2021/07/15 09:02:58;;;;;;;4.83;3.50;;;;;;;24.79;61.45;100584.19;5087863;28;20539;-68
2021/07/15 09:05:24;;;;;;;6.33;3.00;;;;;;;24.99;61.05;100581.03;5070966;28;20651;-68
2021/07/15 09:07:50;;;;;;;4.70;3.07;;;;;;;25.23;60.59;100581.69;5072710;28;20178;-68
2021/07/15 09:10:15;;;;;;;5.20;2.80;;;;;;;25.35;60.87;100584.88;5072254;28;20182;-68
2021/07/15 09:12:41;;;;;;;2.70;2.50;;;;;;;25.58;60.13;100590.31;5075278;28;20187;-68
2021/07/15 09:15:11;;;;;;;3.73;3.17;;;;;;;25.20;59.97;100589.41;5091585;28;20167;-68
2021/07/15 09:17:37;;;;;;;4.07;3.50;;;;;;;25.60;59.31;100587.38;5074574;28;20235;-68
2021/07/15 09:20:07;;;;;;;4.07;3.43;;;;;;;25.75;59.28;100591.91;5075455;28;20252;-68
2021/07/15 09:22:33;;;;;;;5.20;3.10;;;;;;;25.94;58.36;100589.66;5075857;28;20197;-68
2021/07/15 09:25:00;;;;;;;5.10;3.30;;;;;;;26.16;57.65;100596.94;5074253;28;20163;-68
2021/07/15 09:27:27;;;;;;;5.33;3.13;;;;;;;26.52;57.73;100602.53;5091477;28;20191;-69
2021/07/15 09:30:08;;;;;;;3.73;3.33;;;;;;;26.82;55.61;100605.25;5075534;28;20174;-68
2021/07/15 09:32:34;;;;;;;4.07;3.23;;;;;;;26.51;56.38;100598.09;5074081;28;20252;-69
2021/07/15 09:35:07;;;;;;;4.77;2.90;;;;;;;26.33;58.03;100598.47;5074116;28;20171;-68
2021/07/15 09:37:35;;;;;;;3.40;3.10;;;;;;;26.20;56.99;100594.69;5075649;28;20175;-69
2021/07/15 09:40:01;;;;;;;4.27;3.50;;;;;;;26.43;56.73;100596.31;5075453;28;20635;-68
2021/07/15 09:42:27;;;;;;;7.57;3.60;;;;;;;25.39;59.26;100585.34;5075428;28;20286;-68
2021/07/15 09:44:53;;;;;;;5.33;3.37;;;;;;;26.12;56.62;100592.91;5075343;28;20737;-68
2021/07/15 09:47:44;;;;;;;6.13;3.17;;;;;;;26.82;55.28;100595.13;5073935;28;20195;-67
2021/07/15 09:50:15;;;;;;;5.50;2.93;;;;;;;27.13;53.56;100605.81;5075005;28;20163;-68
2021/07/15 09:52:41;;;;;;;3.20;2.90;;;;;;;27.16;53.31;100601.88;5098132;22;20301;-68
2021/07/15 09:55:26;;;;;;;4.13;3.20;;;;;;;27.05;55.83;100606.78;5095478;28;20198;-68
2021/07/15 09:58:04;;;;;;;5.83;3.57;;;;;;;26.27;58.09;100596.47;5094905;28;20262;-68
2021/07/15 10:00:43;;;;;;;3.80;3.30;;;;;;;25.18;58.90;100588.75;5094878;28;20217;-68
2021/07/15 10:03:10;;;;;;;3.30;3.00;;;;;;;25.59;58.23;100593.88;5093743;28;20190;-70
2021/07/15 10:05:38;;;;;;;4.03;3.10;;;;;;;26.03;56.71;100596.75;5095106;28;20762;-68
2021/07/15 10:08:09;;;;;;;4.63;3.20;;;;;;;26.28;56.99;100600.91;5095020;28;20178;-69
2021/07/15 10:10:36;;;;;;;5.67;3.40;;;;;;;26.42;56.77;100602.84;5094737;28;20607;-69
2021/07/15 10:13:13;;;;;;;6.43;3.60;;;;;;;26.14;55.91;100597.13;5093566;28;20635;-69
2021/07/15 10:15:38;;;;;;;3.33;2.87;;;;;;;26.74;55.30;100604.28;5094996;28;20170;-69
2021/07/15 10:18:04;;;;;;;6.60;3.30;;;;;;;27.12;53.56;100608.75;5093545;28;20201;-69
2021/07/15 10:20:29;;;;;;;4.47;3.43;;;;;;;26.94;54.59;100601.78;5095088;28;20205;-69
2021/07/15 10:22:56;;;;;;;7.73;3.40;;;;;;;26.86;54.36;100601.91;5097132;28;20209;-68
2021/07/15 10:25:22;;;;;;;4.00;3.43;;;;;;;27.64;51.69;100597.50;5094180;28;20174;-69
2021/07/15 10:27:48;;;;;;;4.10;3.67;;;;;;;27.95;51.00;100599.88;5095723;28;20185;-69
2021/07/15 10:30:15;;;;;;;5.33;3.50;;;;;;;27.17;51.95;100606.31;5094577;28;20171;-69
2021/07/15 10:32:40;;;;;;;4.90;3.33;;;;;;;27.47;51.28;100594.16;5095786;28;20243;-70
2021/07/15 10:35:16;;;;;;;3.50;3.10;;;;;;;27.87;50.73;100583.53;5095211;28;20178;-71
2021/07/15 10:37:44;;;;;;;3.90;3.50;;;;;;;27.93;51.65;100585.50;5097789;28;20610;-70
2021/07/15 10:40:15;;;;;;;3.63;3.30;;;;;;;28.42;50.44;100590.06;5093669;28;20643;-69
2021/07/15 10:42:41;;;;;;;4.17;3.67;;;;;;;28.39;51.33;100588.56;5093280;28;20261;-69
2021/07/15 10:45:08;;;;;;;4.37;3.40;;;;;;;28.07;52.05;100594.66;5094523;28;20271;-69
2021/07/15 10:47:34;;;;;;;5.33;3.77;;;;;;;28.12;51.29;100595.75;5093216;28;20201;-69
2021/07/15 10:50:00;;;;;;;3.90;3.50;;;;;;;27.68;51.36;100602.41;5093191;28;20272;-69
2021/07/15 10:52:26;;;;;;;3.47;3.03;;;;;;;28.31;50.03;100606.06;5093104;28;20213;-68
2021/07/15 10:54:51;;;;;;;4.67;3.20;;;;;;;28.92;47.65;100608.88;5092659;28;20309;-69
2021/07/15 10:57:20;;;;;;;3.80;3.03;;;;;;;28.93;49.09;100607.00;5093228;28;20170;-69
2021/07/15 10:59:46;;;;;;;5.70;3.37;;;;;;;28.78;49.29;100601.63;5092938;28;20193;-69
2021/07/15 11:02:25;;;;;;;4.45;2.80;;;;;;;30.26;45.67;100605.25;5093930;28;20170;-69
2021/07/15 11:04:51;;;;;;;3.65;3.15;;;;;;;30.38;44.33;100609.84;5092734;28;20738;-68
2021/07/15 11:07:22;;;;;;;3.92;3.30;;;;;;;30.40;44.88;100609.63;5092647;28;20223;-69
2021/07/15 11:09:49;;;;;;;4.78;3.03;;;;;;;30.31;44.96;100605.44;5092829;28;20232;-69
2021/07/15 11:12:33;;;;;;;4.85;3.13;;;;;;;29.73;45.77;100605.25;5094130;28;20205;-70
2021/07/15 11:15:01;;;;;;;5.22;3.20;;;;;;;29.40;46.48;100605.22;5092320;28;20190;-69
2021/07/15 11:17:31;;;;;;;3.53;3.10;;;;;;;29.39;47.32;100607.13;5093739;28;20219;-69
2021/07/15 11:20:29;;;;;;;4.78;3.10;;;;;;;28.18;49.57;100589.47;5093924;28;20660;-70
2021/07/15 11:22:56;;;;;;;3.63;2.75;;;;;;;28.47;49.29;100596.63;5092619;28;20670;-68
2021/07/15 11:25:28;;;;;;;4.83;3.37;;;;;;;28.29;49.64;100599.94;5092442;28;20177;-70